Mostafa Salah

Olheiro - Al Ahly
23 Abr 2028
Domingo
Processo

Personalidade

Adaptabilidade (3) Ambição (9) Controvérsia (9) Lealdade (2) Pressão (15) Profissionalismo (19) Espírito Esportivo (3) Temperamento (15)

Perfil

Estilo de Treinamento Democrático
Licença Continental Pro
Determinação 11
Gestão de Pessoas 6
Motivação 7
Disciplina 13
Satisfação no Trabalho
100%
Fadiga
0%
Função Olheiro
Salário 38.6K p/s
Contrato 14.03.2030

Desempenho

Comportamento Bom
Eficácia do Treinamento
44%
Desenvolvimento do Jogador
60%
Prevenção de Lesões
55%
Implementação Tática
40%

Eventos Recentes

Participou de uma reunião de recrutamento 7d atrás
Recomendou um alvo de transferência 7d atrás
Participou de uma reunião de recrutamento 14d atrás
Recomendou um alvo de transferência 14d atrás
Participou de uma reunião de recrutamento 21d atrás
Recomendou um alvo de transferência 21d atrás
Participou de uma reunião de recrutamento 28d atrás
Recomendou um alvo de transferência 28d atrás

Monitorando agora

57
Jogador Clube Status Habilidade Confiança Observado Última observação Último voto
Salah Mohsen El Masry Ativo 113 / 113 58% 1 01.01.2028 Aprovar
Dion Lopy Al-Ittihad Ativo 132 / 137 40% 4 31.12.2027 -
Alex Scott Bournemouth Ativo 169 / 150 40% 1 31.12.2027 -
Thierry Rendall Correia Venezia Ativo 129 / 147 40% 1 09.08.2027 -
Tomáš Souček West Ham United Ativo 133 / 131 40% 1 09.08.2027 -
Ethan Pye Stockport County Ativo 120 / 130 40% 1 09.08.2027 -
Christoph Klarer Birmingham Ativo 126 / 137 40% 1 09.08.2027 -
Jack Currie Oxford United Ativo 125 / 132 40% 4 02.08.2027 -
Gonçalo Franco Swansea City Ativo 122 / 127 40% 1 27.07.2027 -
Gabriel Gudmundsson Leeds United Ativo 134 / 147 40% 1 23.07.2027 -
Xavier Biscayzacú Defensor Sporting Ativo 114 / 136 40% 1 21.07.2027 -
Domagoj Drožđek Tractor Ativo 129 / 128 40% 1 21.07.2027 -
Siaka Sidibé Al Wasl Ativo 123 / 124 40% 1 20.07.2027 -
Leandrinho Sharjah Ativo 117 / 118 40% 1 20.07.2027 -
Matías Palacios Al Ain Ativo 127 / 135 40% 3 18.07.2027 -
Harvey White Stevenage Ativo 116 / 126 40% 2 18.07.2027 -
Valentino Lazaro Al Ain Ativo 144 / 138 40% 1 15.07.2027 -
Ibrahim Saeed Al Shabab Ativo 144 / 134 40% 1 14.07.2027 -
Zakaria Aboukhlal Torino Ativo 145 / 133 40% 1 13.07.2027 -
Amir Hossein Hosseinzadeh Tractor Ativo 141 / 128 40% 1 13.07.2027 -
Rob Atkinson Bristol City Ativo 116 / 130 40% 1 12.07.2027 -
Andrea Carboni Monza Ativo 127 / 137 40% 2 10.07.2027 -
Michael Baidoo Plymouth Argyle Ativo 145 / 127 40% 1 10.07.2027 -
Idris El Mizouni Leyton Orient Ativo 135 / 115 40% 1 10.07.2027 -
Hayden Carter Blackburn Rovers Ativo 122 / 129 40% 1 09.07.2027 -
Jonathan Varane Queens Park Rangers Ativo 120 / 126 40% 1 09.07.2027 -
Bertrand Traoré Sunderland Ativo 140 / 139 40% 1 07.07.2027 -
Stav Toriel Hapoel Tel Aviv Ativo 142 / 130 40% 1 07.07.2027 -
Lewis O'Brien Wrexham Ativo 138 / 124 40% 2 05.07.2027 -
Romano Floriani Mussolini Blackpool Ativo 130 / 124 40% 1 05.07.2027 -
Hector Kyprianou Watford Ativo 140 / 120 40% 1 05.07.2027 -
Mirlind Daku Spartak Moscow Ativo 122 / 127 40% 1 28.06.2027 -
Alexis Cuello San Lorenzo Ativo 137 / 119 40% 1 28.06.2027 -
Ivor Pandur Hull City Ativo 118 / 127 40% 1 14.06.2027 -
Moussa Baradji Blackburn Rovers Ativo 109 / 116 40% 1 27.05.2027 -
Caspar Jander Southampton Ativo 136 / 136 40% 2 25.05.2027 -
Mohammed Abu Al-Shamat Al-Qadisiyah Ativo 120 / 124 40% 1 25.05.2027 -
Ivan Giraldo Valencia Ativo 107 / 123 40% 1 23.05.2027 -
Brodie Spencer Oxford United Ativo 104 / 129 40% 1 23.05.2027 -
Pedro Malheiro Al Wasl Ativo 151 / 138 40% 1 22.05.2027 -
Leighton Clarkson Blackpool Ativo 108 / 113 40% 1 20.05.2027 -
Musab Al-Juwayr Al-Qadisiyah Ativo 127 / 136 40% 1 16.05.2027 -
Lewis Bate Stockport County Ativo 104 / 127 40% 1 15.05.2027 -
Mehdi Dorval Catanzaro Ativo 134 / 127 40% 1 14.05.2027 -
Justin Devenny Stoke City Ativo 141 / 125 40% 1 14.05.2027 -
Niccolò Pierozzi Palermo Ativo 132 / 120 40% 1 12.05.2027 -
Joel Bagan Cardiff City Ativo 133 / 111 40% 2 10.05.2027 -
Brian De Keersmaecker Oxford United Ativo 108 / 119 40% 1 10.05.2027 -
Mahamadou Doumbia Al-Ittihad Ativo 133 / 131 40% 2 07.05.2027 -
Gastón Álvarez Al-Qadisiyah Ativo 133 / 131 40% 1 01.05.2027 -
Zaydou Youssouf Al-Fateh Ativo 134 / 128 40% 2 26.04.2027 -
Will Fish Cardiff City Ativo 109 / 116 40% 1 19.04.2027 -
Adam Gnezda Čerin Al Wahda Ativo 124 / 124 40% 1 19.04.2027 -
Josh Tymon Swansea City Ativo 123 / 130 40% 1 15.04.2027 -
Yacine Adli Al-Shabab Ativo 135 / 134 40% 1 12.04.2027 -
Andre Dozzell Bradford City Ativo 120 / 109 40% 1 07.04.2027 -
Mamadou Coulibaly Al Jazira Ativo 114 / 121 40% 1 06.04.2027 -